sensor_id;sensor_type;location;lat;lon;timestamp;P1;P2;P0
55076;PMS7003;40971;44.702;11.030;2023-08-06T00:04:35;0.00;0.00;0.00
55076;PMS7003;40971;44.702;11.030;2023-08-06T00:14:37;0.00;0.00;0.00
55076;PMS7003;40971;44.702;11.030;2023-08-06T00:24:37;0.00;0.00;0.00
55076;PMS7003;40971;44.702;11.030;2023-08-06T00:34:38;1.00;0.00;0.00
55076;PMS7003;40971;44.702;11.030;2023-08-06T00:44:39;0.50;0.00;0.00
55076;PMS7003;40971;44.702;11.030;2023-08-06T00:54:40;0.00;0.00;0.00
55076;PMS7003;40971;44.702;11.030;2023-08-06T01:04:42;0.00;0.00;0.00
55076;PMS7003;40971;44.702;11.030;2023-08-06T01:24:58;0.00;0.00;0.00
55076;PMS7003;40971;44.702;11.030;2023-08-06T01:34:59;0.00;0.00;0.00
55076;PMS7003;40971;44.702;11.030;2023-08-06T01:45:02;1.00;0.00;0.00
55076;PMS7003;40971;44.702;11.030;2023-08-06T01:55:03;0.00;0.00;0.00
55076;PMS7003;40971;44.702;11.030;2023-08-06T02:05:05;1.00;1.00;0.00
55076;PMS7003;40971;44.702;11.030;2023-08-06T02:15:06;0.50;0.00;0.00
55076;PMS7003;40971;44.702;11.030;2023-08-06T02:25:07;0.00;0.00;0.00
55076;PMS7003;40971;44.702;11.030;2023-08-06T02:35:09;0.00;0.00;0.00
55076;PMS7003;40971;44.702;11.030;2023-08-06T02:45:10;0.50;0.50;0.50
55076;PMS7003;40971;44.702;11.030;2023-08-06T02:55:11;0.33;0.00;0.00
55076;PMS7003;40971;44.702;11.030;2023-08-06T03:05:12;0.00;0.00;0.00
55076;PMS7003;40971;44.702;11.030;2023-08-06T03:15:13;0.00;0.00;0.00
55076;PMS7003;40971;44.702;11.030;2023-08-06T03:25:14;0.00;0.00;0.00
55076;PMS7003;40971;44.702;11.030;2023-08-06T03:35:16;0.00;0.00;0.00
55076;PMS7003;40971;44.702;11.030;2023-08-06T03:45:16;1.00;1.00;0.00
55076;PMS7003;40971;44.702;11.030;2023-08-06T03:55:18;1.00;1.00;0.00
55076;PMS7003;40971;44.702;11.030;2023-08-06T04:05:19;1.00;1.00;1.00
55076;PMS7003;40971;44.702;11.030;2023-08-06T04:15:20;1.00;1.00;1.00
55076;PMS7003;40971;44.702;11.030;2023-08-06T04:25:21;2.00;2.00;1.00
55076;PMS7003;40971;44.702;11.030;2023-08-06T04:35:22;2.00;2.00;2.00
55076;PMS7003;40971;44.702;11.030;2023-08-06T04:45:23;5.00;5.00;3.00
55076;PMS7003;40971;44.702;11.030;2023-08-06T04:55:24;4.00;2.50;2.00
55076;PMS7003;40971;44.702;11.030;2023-08-06T05:05:26;2.00;2.00;2.00
55076;PMS7003;40971;44.702;11.030;2023-08-06T05:15:27;3.00;3.00;2.00
55076;PMS7003;40971;44.702;11.030;2023-08-06T05:25:28;5.00;5.00;3.67
55076;PMS7003;40971;44.702;11.030;2023-08-06T05:35:29;5.50;3.50;3.00
55076;PMS7003;40971;44.702;11.030;2023-08-06T05:45:30;7.50;7.50;6.00
55076;PMS7003;40971;44.702;11.030;2023-08-06T05:55:32;18.33;18.33;14.00
55076;PMS7003;40971;44.702;11.030;2023-08-06T06:05:34;22.75;22.75;17.75
55076;PMS7003;40971;44.702;11.030;2023-08-06T06:15:38;20.00;19.00;16.50
55076;PMS7003;40971;44.702;11.030;2023-08-06T06:25:43;19.00;19.00;14.67
55076;PMS7003;40971;44.702;11.030;2023-08-06T06:35:47;21.50;21.50;17.00
55076;PMS7003;40971;44.702;11.030;2023-08-06T06:45:53;20.00;19.00;15.00
55076;PMS7003;40971;44.702;11.030;2023-08-06T06:56:02;16.00;16.00;13.80
55076;PMS7003;40971;44.702;11.030;2023-08-06T07:06:06;8.33;8.33;7.67
55076;PMS7003;40971;44.702;11.030;2023-08-06T07:16:09;5.00;5.00;4.00
55076;PMS7003;40971;44.702;11.030;2023-08-06T07:26:11;3.80;3.80;3.00
55076;PMS7003;40971;44.702;11.030;2023-08-06T07:36:14;2.00;2.00;2.00
55076;PMS7003;40971;44.702;11.030;2023-08-06T07:46:17;2.00;2.00;1.83
55076;PMS7003;40971;44.702;11.030;2023-08-06T07:56:20;0.00;0.00;0.00
55076;PMS7003;40971;44.702;11.030;2023-08-06T08:06:23;1.00;1.00;1.00
55076;PMS7003;40971;44.702;11.030;2023-08-06T08:16:26;0.60;0.60;0.60
55076;PMS7003;40971;44.702;11.030;2023-08-06T08:26:28;1.60;1.60;1.00
55076;PMS7003;40971;44.702;11.030;2023-08-06T08:36:30;1.00;1.00;1.00
55076;PMS7003;40971;44.702;11.030;2023-08-06T08:46:32;1.00;1.00;1.00
55076;PMS7003;40971;44.702;11.030;2023-08-06T08:56:36;1.00;1.00;0.00
55076;PMS7003;40971;44.702;11.030;2023-08-06T09:06:39;0.67;0.67;0.17
55076;PMS7003;40971;44.702;11.030;2023-08-06T09:16:45;0.33;0.33;0.33
55076;PMS7003;40971;44.702;11.030;2023-08-06T09:26:49;0.83;0.83;0.67
55076;PMS7003;40971;44.702;11.030;2023-08-06T09:36:53;0.33;0.33;0.33
55076;PMS7003;40971;44.702;11.030;2023-08-06T09:47:00;1.83;1.83;1.00
55076;PMS7003;40971;44.702;11.030;2023-08-06T09:57:05;1.00;1.00;1.00
55076;PMS7003;40971;44.702;11.030;2023-08-06T10:07:08;1.00;1.00;1.00
55076;PMS7003;40971;44.702;11.030;2023-08-06T10:17:11;1.33;1.17;1.00
55076;PMS7003;40971;44.702;11.030;2023-08-06T10:27:19;1.00;1.00;1.00
55076;PMS7003;40971;44.702;11.030;2023-08-06T10:37:36;1.50;1.00;1.00
55076;PMS7003;40971;44.702;11.030;2023-08-06T10:47:39;0.50;0.50;0.50
55076;PMS7003;40971;44.702;11.030;2023-08-06T10:57:42;0.83;0.83;0.83
55076;PMS7003;40971;44.702;11.030;2023-08-06T11:07:45;0.17;0.17;0.17
55076;PMS7003;40971;44.702;11.030;2023-08-06T11:17:50;0.33;0.00;0.00
55076;PMS7003;40971;44.702;11.030;2023-08-06T11:27:53;1.50;0.83;0.83
55076;PMS7003;40971;44.702;11.030;2023-08-06T11:37:55;0.40;0.40;0.40
55076;PMS7003;40971;44.702;11.030;2023-08-06T11:47:58;0.00;0.00;0.00
55076;PMS7003;40971;44.702;11.030;2023-08-06T11:58:04;0.00;0.00;0.00
55076;PMS7003;40971;44.702;11.030;2023-08-06T12:08:08;1.00;1.00;0.50
55076;PMS7003;40971;44.702;11.030;2023-08-06T12:18:09;1.00;1.00;0.00
55076;PMS7003;40971;44.702;11.030;2023-08-06T12:28:12;0.00;0.00;0.00
55076;PMS7003;40971;44.702;11.030;2023-08-06T12:38:14;0.00;0.00;0.00
55076;PMS7003;40971;44.702;11.030;2023-08-06T12:48:16;0.17;0.17;0.17
55076;PMS7003;40971;44.702;11.030;2023-08-06T12:58:18;0.00;0.00;0.00
55076;PMS7003;40971;44.702;11.030;2023-08-06T13:08:21;0.00;0.00;0.00
55076;PMS7003;40971;44.702;11.030;2023-08-06T13:18:22;0.00;0.00;0.00
55076;PMS7003;40971;44.702;11.030;2023-08-06T13:28:24;0.67;0.67;0.00
55076;PMS7003;40971;44.702;11.030;2023-08-06T13:38:25;1.00;1.00;0.00
55076;PMS7003;40971;44.702;11.030;2023-08-06T13:48:28;1.00;0.33;0.00
55076;PMS7003;40971;44.702;11.030;2023-08-06T13:58:29;2.00;1.00;1.00
55076;PMS7003;40971;44.702;11.030;2023-08-06T14:08:31;0.00;0.00;0.00
55076;PMS7003;40971;44.702;11.030;2023-08-06T14:18:32;1.00;1.00;0.00
55076;PMS7003;40971;44.702;11.030;2023-08-06T14:28:33;0.00;0.00;0.00
55076;PMS7003;40971;44.702;11.030;2023-08-06T14:38:35;0.00;0.00;0.00
55076;PMS7003;40971;44.702;11.030;2023-08-06T14:48:37;0.00;0.00;0.00
55076;PMS7003;40971;44.702;11.030;2023-08-06T14:58:41;0.67;0.67;0.00
55076;PMS7003;40971;44.702;11.030;2023-08-06T15:08:44;1.00;1.00;0.00
55076;PMS7003;40971;44.702;11.030;2023-08-06T15:18:49;1.17;0.00;0.00
55076;PMS7003;40971;44.702;11.030;2023-08-06T15:28:51;0.00;0.00;0.00
55076;PMS7003;40971;44.702;11.030;2023-08-06T15:38:53;0.00;0.00;0.00
55076;PMS7003;40971;44.702;11.030;2023-08-06T15:48:55;0.00;0.00;0.00
55076;PMS7003;40971;44.702;11.030;2023-08-06T15:58:57;0.40;0.40;0.00
55076;PMS7003;40971;44.702;11.030;2023-08-06T16:08:59;0.00;0.00;0.00
55076;PMS7003;40971;44.702;11.030;2023-08-06T16:19:02;0.00;0.00;0.00
55076;PMS7003;40971;44.702;11.030;2023-08-06T16:29:05;0.33;0.33;0.00
55076;PMS7003;40971;44.702;11.030;2023-08-06T16:39:07;0.00;0.00;0.00
55076;PMS7003;40971;44.702;11.030;2023-08-06T16:49:10;0.00;0.00;0.00
55076;PMS7003;40971;44.702;11.030;2023-08-06T16:59:12;0.20;0.20;0.00
55076;PMS7003;40971;44.702;11.030;2023-08-06T17:09:16;0.33;0.33;0.00
55076;PMS7003;40971;44.702;11.030;2023-08-06T17:19:18;0.60;0.60;0.00
55076;PMS7003;40971;44.702;11.030;2023-08-06T17:29:20;0.00;0.00;0.00
55076;PMS7003;40971;44.702;11.030;2023-08-06T17:39:22;0.00;0.00;0.00
55076;PMS7003;40971;44.702;11.030;2023-08-06T17:49:24;0.00;0.00;0.00
55076;PMS7003;40971;44.702;11.030;2023-08-06T17:59:26;0.00;0.00;0.00
55076;PMS7003;40971;44.702;11.030;2023-08-06T18:09:29;0.00;0.00;0.00
55076;PMS7003;40971;44.702;11.030;2023-08-06T18:19:34;0.00;0.00;0.00
55076;PMS7003;40971;44.702;11.030;2023-08-06T18:29:37;0.00;0.00;0.00
55076;PMS7003;40971;44.702;11.030;2023-08-06T18:39:39;0.00;0.00;0.00
55076;PMS7003;40971;44.702;11.030;2023-08-06T18:49:44;0.00;0.00;0.00
55076;PMS7003;40971;44.702;11.030;2023-08-06T18:59:47;0.83;0.83;0.00
55076;PMS7003;40971;44.702;11.030;2023-08-06T19:09:48;0.00;0.00;0.00
55076;PMS7003;40971;44.702;11.030;2023-08-06T19:19:50;0.00;0.00;0.00
55076;PMS7003;40971;44.702;11.030;2023-08-06T19:29:52;1.40;1.00;0.00
55076;PMS7003;40971;44.702;11.030;2023-08-06T19:39:55;0.00;0.00;0.00
55076;PMS7003;40971;44.702;11.030;2023-08-06T19:49:56;1.00;1.00;0.00
55076;PMS7003;40971;44.702;11.030;2023-08-06T20:00:00;0.80;0.80;0.00
55076;PMS7003;40971;44.702;11.030;2023-08-06T20:10:02;0.50;0.50;0.50
55076;PMS7003;40971;44.702;11.030;2023-08-06T20:20:03;1.50;0.00;0.00
55076;PMS7003;40971;44.702;11.030;2023-08-06T20:30:08;1.00;0.00;0.00
55076;PMS7003;40971;44.702;11.030;2023-08-06T20:40:10;1.00;1.00;0.00
55076;PMS7003;40971;44.702;11.030;2023-08-06T20:50:11;1.00;1.00;1.00
55076;PMS7003;40971;44.702;11.030;2023-08-06T21:00:12;2.00;2.00;1.00
55076;PMS7003;40971;44.702;11.030;2023-08-06T21:10:13;2.00;2.00;1.00
55076;PMS7003;40971;44.702;11.030;2023-08-06T21:20:15;2.67;2.67;2.67
55076;PMS7003;40971;44.702;11.030;2023-08-06T21:30:15;3.00;3.00;2.00
55076;PMS7003;40971;44.702;11.030;2023-08-06T21:40:16;6.00;4.00;3.00
55076;PMS7003;40971;44.702;11.030;2023-08-06T21:50:17;4.00;4.00;3.00
55076;PMS7003;40971;44.702;11.030;2023-08-06T22:00:19;4.00;4.00;3.00
55076;PMS7003;40971;44.702;11.030;2023-08-06T22:10:20;3.00;3.00;3.00
55076;PMS7003;40971;44.702;11.030;2023-08-06T22:20:21;3.00;3.00;2.00
55076;PMS7003;40971;44.702;11.030;2023-08-06T22:30:22;2.00;2.00;1.00
55076;PMS7003;40971;44.702;11.030;2023-08-06T22:40:23;5.00;3.00;1.50
55076;PMS7003;40971;44.702;11.030;2023-08-06T22:50:24;1.67;1.67;1.00
55076;PMS7003;40971;44.702;11.030;2023-08-06T23:00:26;3.00;2.00;1.00
55076;PMS7003;40971;44.702;11.030;2023-08-06T23:10:27;2.00;2.00;1.00
55076;PMS7003;40971;44.702;11.030;2023-08-06T23:20:27;1.50;1.50;1.00
55076;PMS7003;40971;44.702;11.030;2023-08-06T23:30:29;1.00;1.00;1.00
55076;PMS7003;40971;44.702;11.030;2023-08-06T23:40:30;1.00;1.00;0.50
55076;PMS7003;40971;44.702;11.030;2023-08-06T23:50:31;2.00;2.00;1.00
